createdAt,value
2019-02-26T00:01:26.141Z,60.60
2019-02-26T00:04:02.655Z,60.20
2019-02-26T00:06:39.876Z,74.50
2019-02-26T00:11:52.895Z,72.00
2019-02-26T00:14:30.307Z,72.50
2019-02-26T00:17:10.609Z,58.80
2019-02-26T00:19:46.018Z,58.70
2019-02-26T00:22:23.156Z,58.50
2019-02-26T00:25:01.011Z,58.10
2019-02-26T00:30:16.639Z,70.10
2019-02-26T00:32:55.313Z,69.40
2019-02-26T00:35:31.586Z,71.20
2019-02-26T00:38:08.963Z,69.10
2019-02-26T00:40:46.787Z,74.40
2019-02-26T00:43:25.670Z,71.50
2019-02-26T00:46:03.213Z,57.20
2019-02-26T00:48:40.782Z,74.20
2019-02-26T00:51:22.609Z,55.80
2019-02-26T00:53:59.877Z,54.10
2019-02-26T00:56:38.595Z,70.80
2019-02-26T00:59:27.703Z,56.70
2019-02-26T01:02:04.773Z,56.40
2019-02-26T01:04:43.860Z,56.30
2019-02-26T01:07:21.373Z,61.20
2019-02-26T01:09:59.225Z,62.20
2019-02-26T01:12:37.673Z,59.00
2019-02-26T01:15:17.374Z,61.80
2019-02-26T01:20:30.240Z,54.40
2019-02-26T01:23:07.070Z,52.10
2019-02-26T01:25:44.206Z,65.20
2019-02-26T01:28:22.618Z,66.10
2019-02-26T01:31:00.270Z,65.20
2019-02-26T01:33:37.722Z,64.20
2019-02-26T01:38:50.971Z,62.50
2019-02-26T01:41:28.846Z,62.70
2019-02-26T01:44:05.916Z,57.20
2019-02-26T01:46:42.955Z,62.80
2019-02-26T01:51:55.770Z,60.20
2019-02-26T01:54:33.516Z,58.60
2019-02-26T01:57:11.354Z,59.20
2019-02-26T02:02:25.259Z,59.30
2019-02-26T02:05:04.486Z,58.10
2019-02-26T02:07:40.606Z,59.40
2019-02-26T02:10:19.032Z,58.80
2019-02-26T02:12:59.572Z,59.90
2019-02-26T02:18:09.332Z,59.80
2019-02-26T02:23:25.318Z,61.30
2019-02-26T02:26:04.081Z,56.80
2019-02-26T02:28:40.050Z,61.90
2019-02-26T02:31:17.081Z,61.60
2019-02-26T02:33:54.137Z,62.20
2019-02-26T02:39:10.257Z,63.10
2019-02-26T02:41:45.427Z,62.90
2019-02-26T02:47:01.380Z,63.80
2019-02-26T02:52:13.451Z,64.90
2019-02-26T02:54:51.866Z,68.90
2019-02-26T02:57:30.024Z,63.40
2019-02-26T03:05:18.952Z,60.70
2019-02-26T03:07:56.407Z,61.10
2019-02-26T03:10:37.324Z,60.80
2019-02-26T03:15:50.050Z,61.60
2019-02-26T03:21:02.466Z,63.50
2019-02-26T03:23:41.219Z,62.90
2019-02-26T03:26:17.874Z,59.50
2019-02-26T03:28:55.616Z,61.20
2019-02-26T03:31:34.801Z,60.90
2019-02-26T03:34:18.995Z,61.60
2019-02-26T03:36:49.127Z,59.40
2019-02-26T03:39:26.219Z,59.80
2019-02-26T03:47:12.927Z,59.80
2019-02-26T03:49:49.966Z,60.00
2019-02-26T03:52:28.976Z,60.40
2019-02-26T03:55:08.207Z,61.70
2019-02-26T03:57:46.957Z,61.80
2019-02-26T04:00:22.235Z,57.90
2019-02-26T04:08:08.662Z,64.30
2019-02-26T04:10:47.507Z,62.90
2019-02-26T04:13:25.272Z,63.40
2019-02-26T04:18:39.626Z,61.90
2019-02-26T04:27:15.343Z,60.70
2019-02-26T04:33:19.351Z,60.20
2019-02-26T04:36:22.753Z,62.00
2019-02-26T04:39:44.980Z,63.40
2019-02-26T04:42:35.159Z,53.20
2019-02-26T04:45:51.922Z,53.20
2019-02-26T04:48:32.537Z,53.90
2019-02-26T04:51:09.835Z,53.20
2019-02-26T04:53:49.211Z,65.70
2019-02-26T04:56:31.278Z,52.20
2019-02-26T04:59:07.072Z,62.60
2019-02-26T05:01:44.698Z,62.00
2019-02-26T05:04:21.495Z,66.30
2019-02-26T05:06:58.542Z,50.90
2019-02-26T05:09:35.764Z,59.30
2019-02-26T05:12:12.959Z,49.60
2019-02-26T05:14:50.114Z,59.70
2019-02-26T05:17:30.118Z,48.80
2019-02-26T05:20:07.312Z,60.00
2019-02-26T05:22:43.610Z,48.20
2019-02-26T05:25:21.827Z,48.30
2019-02-26T05:27:58.925Z,48.20
2019-02-26T05:30:40.420Z,48.40
2019-02-26T05:33:18.485Z,48.60
2019-02-26T05:35:56.031Z,49.30
2019-02-26T05:38:34.823Z,49.90
2019-02-26T05:41:11.191Z,50.20
2019-02-26T05:46:26.379Z,60.80
2019-02-26T05:51:38.230Z,60.60
2019-02-26T05:54:17.986Z,60.70
2019-02-26T05:56:53.319Z,60.50
2019-02-26T05:59:30.389Z,61.30
2019-02-26T06:02:07.423Z,64.80
2019-02-26T06:04:46.576Z,50.50
2019-02-26T06:07:25.089Z,49.90
2019-02-26T06:10:01.024Z,49.80
2019-02-26T06:12:40.511Z,50.10
2019-02-26T06:15:16.854Z,50.00
2019-02-26T06:17:55.827Z,50.10
2019-02-26T06:20:33.998Z,63.60
2019-02-26T06:23:10.543Z,50.20
2019-02-26T06:25:47.680Z,51.10
2019-02-26T06:28:24.720Z,64.70
2019-02-26T06:31:01.759Z,51.40
2019-02-26T06:33:40.717Z,63.90
2019-02-26T06:36:18.633Z,58.60
2019-02-26T06:41:31.159Z,64.00
2019-02-26T06:44:08.231Z,63.40
2019-02-26T06:46:46.549Z,62.90
2019-02-26T06:49:24.592Z,63.60
2019-02-26T06:52:01.874Z,63.00
2019-02-26T06:54:38.902Z,66.30
2019-02-26T06:57:15.992Z,63.20
2019-02-26T07:02:29.312Z,63.70
2019-02-26T07:07:40.919Z,64.20
2019-02-26T07:10:23.732Z,68.00
2019-02-26T07:12:58.807Z,54.10
2019-02-26T07:15:35.979Z,67.70
2019-02-26T07:18:17.156Z,54.80
2019-02-26T07:20:55.158Z,55.50
2019-02-26T07:23:34.593Z,75.60
2019-02-26T07:26:11.733Z,71.10
2019-02-26T07:34:00.461Z,66.10
2019-02-26T07:36:36.610Z,65.20
2019-02-26T07:41:54.327Z,59.30
2019-02-26T07:49:46.734Z,64.80
2019-02-26T07:52:28.456Z,64.80
2019-02-26T07:55:09.173Z,55.30
2019-02-26T07:57:48.961Z,56.40
2019-02-26T08:00:26.211Z,57.10
2019-02-26T08:03:05.208Z,57.10
2019-02-26T08:05:44.734Z,57.40
2019-02-26T08:08:22.196Z,57.60
2019-02-26T08:11:03.914Z,57.90
2019-02-26T08:13:41.645Z,71.70
2019-02-26T08:16:20.758Z,70.90
2019-02-26T08:18:59.008Z,71.70
2019-02-26T08:24:14.851Z,71.70
2019-02-26T08:26:51.723Z,71.90
2019-02-26T08:29:29.391Z,71.80
2019-02-26T08:34:41.658Z,72.50
2019-02-26T08:37:18.876Z,73.90
2019-02-26T08:39:57.750Z,60.70
2019-02-26T08:42:34.737Z,61.90
2019-02-26T08:45:15.088Z,62.00
2019-02-26T08:47:51.561Z,62.00
2019-02-26T08:50:31.130Z,62.30
2019-02-26T08:53:08.218Z,62.90
2019-02-26T08:55:45.290Z,62.30
2019-02-26T08:58:23.588Z,62.30
2019-02-26T09:01:00.573Z,62.20
2019-02-26T09:03:40.765Z,62.20
2019-02-26T09:06:16.312Z,61.90
2019-02-26T09:08:55.050Z,62.00
2019-02-26T09:11:33.780Z,61.50
2019-02-26T09:14:11.529Z,80.50
2019-02-26T09:16:52.537Z,61.50
2019-02-26T09:19:32.858Z,61.30
2019-02-26T09:22:11.806Z,61.60
2019-02-26T09:24:49.299Z,81.60
2019-02-26T09:27:27.095Z,83.20
2019-02-26T09:30:05.799Z,61.90
2019-02-26T09:32:42.881Z,62.10
2019-02-26T09:35:26.771Z,62.60
2019-02-26T09:38:00.918Z,63.10
2019-02-26T09:40:37.188Z,63.80
2019-02-26T09:43:17.283Z,83.80
2019-02-26T09:45:53.519Z,64.40
2019-02-26T09:48:30.938Z,64.80
2019-02-26T09:51:09.429Z,82.60
2019-02-26T09:53:47.216Z,65.30
2019-02-26T09:58:59.081Z,66.80
2019-02-26T10:01:37.871Z,81.10
2019-02-26T10:04:14.494Z,82.30
2019-02-26T10:06:52.834Z,82.30
2019-02-26T10:09:29.876Z,82.20
2019-02-26T10:12:07.573Z,66.10
2019-02-26T10:14:45.100Z,83.70
2019-02-26T10:17:22.313Z,80.80
2019-02-26T10:20:01.585Z,82.30
2019-02-26T10:22:40.318Z,66.60
2019-02-26T10:25:16.928Z,67.00
2019-02-26T10:27:54.050Z,67.10
2019-02-26T10:30:33.466Z,67.00
2019-02-26T10:33:10.741Z,83.90
2019-02-26T10:35:49.773Z,83.00
2019-02-26T10:38:29.614Z,83.00
2019-02-26T10:41:05.508Z,82.00
2019-02-26T10:43:42.770Z,67.60
2019-02-26T10:46:19.814Z,84.50
2019-02-26T10:48:56.859Z,68.80
2019-02-26T10:51:34.005Z,69.10
2019-02-26T10:54:13.309Z,69.10
2019-02-26T10:56:51.522Z,85.50
2019-02-26T10:59:28.609Z,85.50
2019-02-26T11:02:08.520Z,69.00
2019-02-26T11:04:46.903Z,84.20
2019-02-26T11:07:23.818Z,85.70
2019-02-26T11:10:01.207Z,85.60
2019-02-26T11:12:38.388Z,68.90
2019-02-26T11:15:16.088Z,68.90
2019-02-26T11:17:55.665Z,68.80
2019-02-26T11:20:34.107Z,68.80
2019-02-26T11:23:11.973Z,68.80
2019-02-26T11:25:48.154Z,68.70
2019-02-26T11:28:29.772Z,68.70
2019-02-26T11:31:05.151Z,68.70
2019-02-26T11:33:42.341Z,68.90
2019-02-26T11:36:20.369Z,69.00
2019-02-26T11:39:01.676Z,68.80
2019-02-26T11:41:37.700Z,68.80
2019-02-26T11:44:19.050Z,68.70
2019-02-26T11:46:54.317Z,68.50
2019-02-26T11:49:31.242Z,68.50
2019-02-26T11:52:08.423Z,68.10
2019-02-26T11:54:45.583Z,68.70
2019-02-26T11:57:22.688Z,68.50
2019-02-26T12:00:01.766Z,68.60
2019-02-26T12:02:39.244Z,87.20
2019-02-26T12:05:16.309Z,68.30
2019-02-26T12:07:53.825Z,88.10
2019-02-26T12:10:32.499Z,68.20
2019-02-26T12:13:09.691Z,68.30
2019-02-26T12:15:46.880Z,68.00
2019-02-26T12:18:23.859Z,88.20
2019-02-26T12:21:02.728Z,67.90
2019-02-26T12:23:39.722Z,68.00
2019-02-26T12:26:19.320Z,68.20
2019-02-26T12:28:57.324Z,68.40
2019-02-26T12:31:36.356Z,68.40
2019-02-26T12:34:14.574Z,68.60
2019-02-26T12:36:51.130Z,68.60
2019-02-26T12:39:31.359Z,68.70
2019-02-26T12:42:10.483Z,68.80
2019-02-26T12:44:45.955Z,68.80
2019-02-26T12:47:24.650Z,69.00
2019-02-26T12:50:01.679Z,69.10
2019-02-26T12:52:42.348Z,69.10
2019-02-26T12:55:21.976Z,69.30
2019-02-26T12:57:59.625Z,69.30
2019-02-26T13:00:38.376Z,69.40
2019-02-26T13:03:15.975Z,69.30
2019-02-26T13:05:53.039Z,69.40
2019-02-26T13:08:30.065Z,69.50
2019-02-26T13:11:07.362Z,69.70
2019-02-26T13:13:45.319Z,69.90
2019-02-26T13:16:22.567Z,90.40
2019-02-26T13:19:01.589Z,70.50
2019-02-26T13:21:42.577Z,70.70
2019-02-26T13:24:17.815Z,70.90
2019-02-26T13:26:59.267Z,70.90
2019-02-26T13:29:33.271Z,89.10
2019-02-26T13:32:13.687Z,70.80
2019-02-26T13:34:51.504Z,70.90
2019-02-26T13:37:32.418Z,70.80
2019-02-26T13:40:09.442Z,70.70
2019-02-26T13:42:49.930Z,71.10
2019-02-26T13:45:25.992Z,71.20
2019-02-26T13:48:03.239Z,71.10
2019-02-26T13:50:42.437Z,71.50
2019-02-26T13:53:19.475Z,71.70
2019-02-26T13:55:58.105Z,89.90
2019-02-26T13:58:35.182Z,72.10
2019-02-26T14:01:12.592Z,72.30
2019-02-26T14:03:51.636Z,72.40
2019-02-26T14:06:28.827Z,72.40
2019-02-26T14:09:05.906Z,72.50
2019-02-26T14:11:43.119Z,72.40
2019-02-26T14:14:20.132Z,72.40
2019-02-26T14:16:57.533Z,72.60
2019-02-26T14:19:34.618Z,72.60
2019-02-26T14:22:11.870Z,72.60
2019-02-26T14:24:50.905Z,72.80
2019-02-26T14:27:29.453Z,72.80
2019-02-26T14:30:06.541Z,72.80
2019-02-26T14:32:44.042Z,73.20
2019-02-26T14:35:22.104Z,73.40
2019-02-26T14:37:59.114Z,73.60
2019-02-26T14:40:37.872Z,93.00
2019-02-26T14:43:15.769Z,73.90
2019-02-26T14:45:52.890Z,91.40
2019-02-26T14:48:30.177Z,74.20
2019-02-26T14:51:07.333Z,74.20
2019-02-26T14:53:44.452Z,74.40
2019-02-26T14:56:21.556Z,90.30
2019-02-26T14:58:58.774Z,74.60
2019-02-26T15:01:35.912Z,90.00
2019-02-26T15:04:13.000Z,89.50
2019-02-26T15:09:24.837Z,89.30
2019-02-26T15:12:02.018Z,89.30
2019-02-26T15:14:40.076Z,89.20
2019-02-26T15:17:17.200Z,88.50
2019-02-26T15:19:55.267Z,88.70
2019-02-26T15:22:36.262Z,90.10
2019-02-26T15:25:15.414Z,75.50
2019-02-26T15:27:52.518Z,75.60
2019-02-26T15:30:30.875Z,75.70
2019-02-26T15:33:11.067Z,75.80
2019-02-26T15:35:46.902Z,76.10
2019-02-26T15:38:23.970Z,76.50
2019-02-26T15:41:03.024Z,91.60
2019-02-26T15:43:40.234Z,92.80
2019-02-26T15:46:17.555Z,91.00
2019-02-26T15:48:54.697Z,91.00
2019-02-26T15:51:31.795Z,91.00
2019-02-26T15:54:08.820Z,91.10
2019-02-26T15:56:45.943Z,91.00
2019-02-26T15:59:26.131Z,89.50
2019-02-26T16:02:03.259Z,89.90
2019-02-26T16:04:40.348Z,90.00
2019-02-26T16:07:18.471Z,89.90
2019-02-26T16:09:55.670Z,89.60
2019-02-26T16:12:32.859Z,90.30
2019-02-26T16:15:10.155Z,90.70
2019-02-26T16:17:47.711Z,90.90
2019-02-26T16:20:25.759Z,90.70
2019-02-26T16:23:02.742Z,90.50
2019-02-26T16:25:39.828Z,90.50
2019-02-26T16:28:17.812Z,90.60
2019-02-26T16:30:56.008Z,77.10
2019-02-26T16:33:34.189Z,77.20
2019-02-26T16:36:13.018Z,77.80
2019-02-26T16:38:51.419Z,80.70
2019-02-26T16:41:28.477Z,81.10
2019-02-26T16:44:05.645Z,81.00
2019-02-26T16:46:42.734Z,82.70
2019-02-26T16:49:21.148Z,80.50
2019-02-26T16:51:58.253Z,79.90
2019-02-26T16:54:38.669Z,79.60
2019-02-26T16:57:16.185Z,79.10
2019-02-26T16:59:55.345Z,78.40
2019-02-26T17:02:33.699Z,99.90
2019-02-26T17:05:14.318Z,79.00
2019-02-26T17:07:49.386Z,79.50
2019-02-26T17:10:29.530Z,79.60
2019-02-26T17:13:05.364Z,78.70
2019-02-26T17:15:42.448Z,78.50
2019-02-26T17:18:19.619Z,78.80
2019-02-26T17:21:07.165Z,78.80
2019-02-26T17:23:46.956Z,79.10
2019-02-26T17:26:22.667Z,79.10
2019-02-26T17:29:05.271Z,79.10
2019-02-26T17:31:42.375Z,79.00
2019-02-26T17:34:20.611Z,79.40
2019-02-26T17:36:58.128Z,79.30
2019-02-26T17:39:35.272Z,79.50
2019-02-26T17:42:12.501Z,79.40
2019-02-26T17:44:49.571Z,79.40
2019-02-26T17:47:29.819Z,79.50
2019-02-26T17:50:06.793Z,79.50
2019-02-26T17:52:43.855Z,93.80
2019-02-26T17:55:21.062Z,79.80
2019-02-26T17:57:58.244Z,93.90
2019-02-26T18:06:52.643Z,94.00
2019-02-26T18:09:29.742Z,80.40
2019-02-26T18:12:06.777Z,94.10
2019-02-26T18:14:45.506Z,80.70
2019-02-26T18:17:22.054Z,93.90
2019-02-26T18:19:59.176Z,80.80
2019-02-26T18:22:36.350Z,94.10
2019-02-26T18:25:14.508Z,80.50
2019-02-26T18:27:51.714Z,80.60
2019-02-26T18:30:29.404Z,80.60
2019-02-26T18:33:06.597Z,80.40
2019-02-26T18:35:43.639Z,94.00
2019-02-26T18:38:20.947Z,80.90
2019-02-26T18:41:00.585Z,93.90
2019-02-26T18:43:36.138Z,81.20
2019-02-26T18:46:13.170Z,81.20
2019-02-26T18:48:50.224Z,81.20
2019-02-26T18:51:27.350Z,94.60
2019-02-26T18:54:04.518Z,82.40
2019-02-26T18:56:41.685Z,82.50
2019-02-26T18:59:22.712Z,82.00
2019-02-26T19:02:03.325Z,95.10
2019-02-26T19:04:38.180Z,82.40
2019-02-26T19:07:15.240Z,82.90
2019-02-26T19:09:52.385Z,83.00
2019-02-26T19:12:30.576Z,95.70
2019-02-26T19:15:07.548Z,96.00
2019-02-26T19:17:44.722Z,83.00
2019-02-26T19:20:23.476Z,95.20
2019-02-26T19:23:02.035Z,83.00
2019-02-26T19:25:41.391Z,83.30
2019-02-26T19:28:16.794Z,83.60
2019-02-26T19:30:53.888Z,83.80
2019-02-26T19:33:31.018Z,83.50
2019-02-26T19:36:10.584Z,83.00
2019-02-26T19:38:46.324Z,82.70
2019-02-26T19:41:23.748Z,82.80
2019-02-26T19:44:00.815Z,82.50
2019-02-26T19:46:39.773Z,96.40
2019-02-26T19:49:18.067Z,82.50
2019-02-26T19:51:55.139Z,82.20
2019-02-26T19:54:32.235Z,81.80
2019-02-26T19:57:09.460Z,81.30
2019-02-26T19:59:47.120Z,81.50
2019-02-26T20:02:24.763Z,81.70
2019-02-26T20:05:01.939Z,94.60
2019-02-26T20:07:39.123Z,82.10
2019-02-26T20:10:17.492Z,95.40
2019-02-26T20:12:54.690Z,82.20
2019-02-26T20:15:31.907Z,82.50
2019-02-26T20:18:19.767Z,82.20
2019-02-26T20:20:47.219Z,82.40
2019-02-26T20:23:24.284Z,82.30
2019-02-26T20:26:01.423Z,82.30
2019-02-26T20:28:41.067Z,82.70
2019-02-26T20:31:22.446Z,96.30
2019-02-26T20:33:59.561Z,83.40
2019-02-26T20:36:36.552Z,83.40
2019-02-26T20:39:15.902Z,82.90
2019-02-26T20:41:55.518Z,82.90
2019-02-26T20:44:31.058Z,82.60
2019-02-26T20:47:08.088Z,82.10
2019-02-26T20:49:46.329Z,81.60
2019-02-26T20:52:23.960Z,81.50
2019-02-26T20:55:01.666Z,81.20
2019-02-26T20:57:39.088Z,81.20
2019-02-26T21:00:18.437Z,80.90
2019-02-26T21:02:55.596Z,81.30
2019-02-26T21:05:32.654Z,80.20
2019-02-26T21:08:10.512Z,80.00
2019-02-26T21:10:48.063Z,79.70
2019-02-26T21:13:25.827Z,95.60
2019-02-26T21:16:02.862Z,80.00
2019-02-26T21:18:39.829Z,95.20
2019-02-26T21:21:16.910Z,80.20
2019-02-26T21:23:53.912Z,80.10
2019-02-26T21:26:31.023Z,80.70
2019-02-26T21:29:08.198Z,80.90
2019-02-26T21:31:45.271Z,81.70
2019-02-26T21:34:22.395Z,96.00
2019-02-26T21:37:00.757Z,81.20
2019-02-26T21:39:37.755Z,95.90
2019-02-26T21:42:15.211Z,81.50
2019-02-26T21:44:52.258Z,81.00
2019-02-26T21:47:29.343Z,99.70
2019-02-26T21:50:06.311Z,80.70
2019-02-26T21:52:43.371Z,80.40
2019-02-26T21:55:20.471Z,80.40
2019-02-26T21:57:57.473Z,91.40
2019-02-26T22:00:36.689Z,90.90
2019-02-26T22:03:12.698Z,79.60
2019-02-26T22:05:49.967Z,79.10
2019-02-26T22:26:35.540Z,91.20
2019-02-26T22:29:12.908Z,91.30
2019-02-26T22:31:50.841Z,91.10
2019-02-26T22:34:28.026Z,91.10
2019-02-26T22:37:07.084Z,90.80
2019-02-26T22:42:17.934Z,92.60
2019-02-26T22:44:55.407Z,90.70
2019-02-26T22:47:32.715Z,90.70
2019-02-26T22:50:10.014Z,90.70
2019-02-26T22:52:47.030Z,90.60
2019-02-26T22:55:24.160Z,90.20
2019-02-26T22:58:02.759Z,90.10
2019-02-26T23:00:52.299Z,75.60
2019-02-26T23:03:29.917Z,76.10
2019-02-26T23:06:07.455Z,75.20
2019-02-26T23:08:44.873Z,74.80
2019-02-26T23:11:22.671Z,75.00
2019-02-26T23:13:59.920Z,74.70
2019-02-26T23:16:37.398Z,89.90
2019-02-26T23:19:15.673Z,90.00
2019-02-26T23:21:53.030Z,74.00
2019-02-26T23:24:30.284Z,90.00
2019-02-26T23:27:07.614Z,74.70
2019-02-26T23:29:47.229Z,74.10
2019-02-26T23:32:25.029Z,74.20
2019-02-26T23:35:13.215Z,73.50
2019-02-26T23:37:50.352Z,73.90
2019-02-26T23:40:28.066Z,74.80
2019-02-26T23:43:05.331Z,74.60
2019-02-26T23:45:42.467Z,73.00
2019-02-26T23:48:19.718Z,72.40
2019-02-26T23:50:56.732Z,72.40
2019-02-26T23:53:34.071Z,72.20
2019-02-26T23:56:11.838Z,72.40
2019-02-26T23:58:48.876Z,71.90
